createdAt,value
2023-04-13T00:02:13.226Z,6.80
2023-04-13T00:06:14.942Z,6.80
2023-04-13T00:10:18.958Z,6.80
2023-04-13T00:14:20.584Z,6.90
2023-04-13T00:18:23.826Z,6.90
2023-04-13T00:22:29.551Z,6.90
2023-04-13T00:26:31.388Z,6.90
2023-04-13T00:30:33.344Z,6.90
2023-04-13T00:34:35.011Z,6.90
2023-04-13T00:38:37.610Z,6.70
2023-04-13T00:42:39.265Z,6.50
2023-04-13T00:46:42.361Z,6.50
2023-04-13T00:50:45.051Z,6.50
2023-04-13T00:54:48.408Z,6.50
2023-04-13T00:58:50.058Z,6.50
2023-04-13T01:02:52.421Z,6.40
2023-04-13T01:07:12.469Z,6.40
2023-04-13T01:11:27.654Z,6.40
2023-04-13T01:15:36.930Z,6.40
2023-04-13T01:19:57.972Z,6.40
2023-04-13T01:24:45.017Z,6.50
2023-04-13T01:28:47.654Z,6.50
2023-04-13T01:32:51.524Z,6.60
2023-04-13T01:36:53.895Z,6.60
2023-04-13T01:40:55.937Z,6.70
2023-04-13T01:44:57.622Z,6.80
2023-04-13T01:49:10.181Z,6.80
2023-04-13T01:53:17.585Z,6.90
2023-04-13T01:57:21.272Z,6.90
2023-04-13T02:01:23.999Z,6.90
2023-04-13T02:05:27.336Z,6.90
2023-04-13T02:09:28.983Z,6.90
2023-04-13T02:13:30.948Z,6.90
2023-04-13T02:17:32.682Z,7.00
2023-04-13T02:21:34.896Z,7.00
2023-04-13T02:25:37.394Z,7.10
2023-04-13T02:29:39.046Z,7.10
2023-04-13T02:33:40.940Z,7.10
2023-04-13T02:37:42.605Z,7.10
2023-04-13T02:41:44.220Z,7.10
2023-04-13T02:45:46.196Z,7.10
2023-04-13T02:49:47.933Z,7.10
2023-04-13T02:53:49.600Z,7.10
2023-04-13T02:57:51.414Z,7.10
2023-04-13T03:01:53.916Z,7.10
2023-04-13T03:05:55.625Z,7.10
2023-04-13T03:09:57.333Z,7.10
2023-04-13T03:14:01.344Z,7.20
2023-04-13T03:18:04.142Z,7.30
2023-04-13T03:22:05.880Z,7.30
2023-04-13T03:26:07.533Z,7.30
2023-04-13T03:30:09.671Z,7.40
2023-04-13T03:34:11.313Z,7.40
2023-04-13T03:38:13.030Z,7.40
2023-04-13T03:42:14.720Z,7.40
2023-04-13T03:46:16.801Z,7.40
2023-04-13T03:50:18.528Z,7.40
2023-04-13T03:54:20.162Z,7.40
2023-04-13T03:58:21.866Z,7.30
2023-04-13T04:02:23.596Z,7.40
2023-04-13T04:06:26.991Z,7.30
2023-04-13T04:10:28.746Z,7.30
2023-04-13T04:14:30.827Z,7.30
2023-04-13T04:18:32.837Z,7.20
2023-04-13T04:22:36.504Z,7.10
2023-04-13T04:26:38.178Z,7.10
2023-04-13T04:30:40.839Z,7.00
2023-04-13T04:34:43.130Z,7.00
2023-04-13T04:38:45.574Z,6.90
2023-04-13T04:42:47.248Z,6.90
2023-04-13T04:46:48.906Z,6.80
2023-04-13T04:50:52.402Z,6.80
2023-04-13T04:54:54.077Z,6.80
2023-04-13T04:58:55.907Z,6.80
2023-04-13T05:02:58.099Z,6.90
2023-04-13T05:06:59.786Z,6.80
2023-04-13T05:11:01.720Z,6.90
2023-04-13T05:15:04.213Z,6.90
2023-04-13T05:19:08.418Z,6.90
2023-04-13T05:23:10.148Z,7.00
2023-04-13T05:27:13.288Z,7.00
2023-04-13T05:31:15.627Z,7.10
2023-04-13T05:35:17.374Z,7.10
2023-04-13T05:39:21.981Z,7.20
2023-04-13T05:43:24.143Z,7.20
2023-04-13T05:47:25.887Z,7.30
2023-04-13T05:51:31.684Z,7.20
2023-04-13T05:55:33.530Z,7.30
2023-04-13T05:59:35.542Z,7.40
2023-04-13T06:03:37.561Z,7.40
2023-04-13T06:07:39.719Z,7.50
2023-04-13T06:11:41.686Z,7.50
2023-04-13T06:15:43.775Z,7.50
2023-04-13T06:19:45.827Z,7.60
2023-04-13T06:23:47.532Z,7.60
2023-04-13T06:27:49.861Z,7.70
2023-04-13T06:31:51.959Z,7.80
2023-04-13T06:35:53.632Z,7.70
2023-04-13T06:39:55.445Z,7.80
2023-04-13T06:43:57.368Z,7.80
2023-04-13T06:48:00.302Z,7.90
2023-04-13T06:52:02.196Z,7.90
2023-04-13T06:56:04.089Z,7.90
2023-04-13T07:00:15.432Z,8.00
2023-04-13T07:04:26.541Z,8.10
2023-04-13T07:08:29.882Z,8.40
2023-04-13T07:12:33.912Z,8.60
2023-04-13T07:16:35.835Z,8.60
2023-04-13T07:20:39.527Z,8.70
2023-04-13T07:24:41.542Z,8.70
2023-04-13T07:28:43.244Z,9.00
2023-04-13T07:32:45.246Z,9.20
2023-04-13T07:36:47.030Z,9.00
2023-04-13T07:40:48.734Z,8.90
2023-04-13T07:44:52.389Z,8.80
2023-04-13T07:48:54.194Z,8.60
2023-04-13T07:52:55.886Z,8.60
2023-04-13T07:56:58.212Z,8.70
2023-04-13T08:00:59.870Z,9.00
2023-04-13T08:05:01.761Z,9.20
2023-04-13T08:09:04.014Z,9.60
2023-04-13T08:13:05.805Z,9.70
2023-04-13T08:17:07.894Z,9.50
2023-04-13T08:21:11.187Z,9.50
2023-04-13T08:25:12.855Z,9.70
2023-04-13T08:29:15.217Z,9.80
2023-04-13T08:33:16.858Z,9.90
2023-04-13T08:37:19.946Z,9.60
2023-04-13T08:41:22.519Z,9.60
2023-04-13T08:45:24.562Z,9.50
2023-04-13T08:49:27.200Z,9.40
2023-04-13T08:53:29.829Z,9.20
2023-04-13T08:57:32.097Z,9.10
2023-04-13T09:01:37.342Z,9.10
2023-04-13T09:05:41.165Z,9.00
2023-04-13T09:09:45.626Z,9.10
2023-04-13T09:13:51.910Z,9.30
2023-04-13T09:17:54.010Z,9.50
2023-04-13T09:21:55.969Z,9.70
2023-04-13T09:26:07.996Z,9.80
2023-04-13T09:30:11.235Z,10.10
2023-04-13T09:34:13.954Z,10.40
2023-04-13T09:38:16.195Z,10.70
2023-04-13T09:42:19.232Z,10.70
2023-04-13T09:46:21.441Z,10.70
2023-04-13T09:50:26.920Z,10.50
2023-04-13T09:54:28.597Z,10.30
2023-04-13T09:58:31.165Z,10.30
2023-04-13T10:02:33.889Z,10.00
2023-04-13T10:06:40.164Z,10.00
2023-04-13T10:10:42.031Z,10.10
2023-04-13T10:14:48.361Z,10.30
2023-04-13T10:19:08.915Z,10.40
2023-04-13T10:23:11.041Z,10.50
2023-04-13T10:27:18.162Z,10.50
2023-04-13T10:31:20.062Z,10.30
2023-04-13T10:35:21.787Z,10.30
2023-04-13T10:39:27.983Z,10.50
2023-04-13T10:43:31.503Z,10.60
2023-04-13T10:47:37.189Z,10.50
2023-04-13T10:51:43.350Z,10.40
2023-04-13T10:55:45.199Z,10.50
2023-04-13T10:59:58.067Z,10.60
2023-04-13T11:04:07.493Z,10.70
2023-04-13T11:08:20.719Z,11.00
2023-04-13T11:12:22.999Z,11.60
2023-04-13T11:16:24.721Z,12.10
2023-04-13T11:20:33.752Z,12.30
2023-04-13T11:24:35.759Z,12.10
2023-04-13T11:28:40.477Z,11.80
2023-04-13T11:32:45.227Z,11.50
2023-04-13T11:36:49.635Z,11.70
2023-04-13T11:40:58.954Z,12.10
2023-04-13T11:45:11.202Z,12.40
2023-04-13T11:49:12.910Z,12.60
2023-04-13T11:53:15.190Z,12.70
2023-04-13T11:57:18.026Z,13.10
2023-04-13T12:01:26.300Z,13.30
2023-04-13T12:05:33.140Z,12.80
2023-04-13T12:14:06.338Z,12.20
2023-04-13T12:18:15.738Z,12.40
2023-04-13T12:22:20.448Z,13.30
2023-04-13T12:27:10.176Z,14.40
2023-04-13T12:30:47.676Z,16.30
2023-04-13T12:34:49.316Z,16.00
2023-04-13T12:38:50.967Z,15.00
2023-04-13T12:42:52.807Z,14.20
2023-04-13T12:46:54.692Z,15.20
2023-04-13T12:50:56.405Z,15.60
2023-04-13T12:55:02.313Z,14.30
2023-04-13T12:59:04.367Z,14.10
2023-04-13T13:03:13.708Z,14.00
2023-04-13T13:07:17.049Z,15.90
2023-04-13T13:11:18.797Z,17.80
2023-04-13T13:15:20.494Z,18.40
2023-04-13T13:19:22.344Z,19.30
2023-04-13T13:23:23.949Z,19.00
2023-04-13T13:31:30.318Z,17.40
2023-04-13T13:35:33.138Z,17.20
2023-04-13T13:39:35.518Z,16.40
2023-04-13T13:43:38.070Z,15.50
2023-04-13T13:47:39.758Z,14.50
2023-04-13T13:51:42.256Z,14.10
2023-04-13T13:55:43.979Z,15.50
2023-04-13T13:59:48.115Z,17.40
2023-04-13T14:03:51.152Z,17.80
2023-04-13T14:07:53.392Z,18.00
2023-04-13T14:11:55.806Z,18.70
2023-04-13T14:15:57.493Z,20.00
2023-04-13T14:19:59.249Z,19.50
2023-04-13T14:24:00.922Z,18.50
2023-04-13T14:28:02.626Z,18.30
2023-04-13T14:32:04.377Z,17.40
2023-04-13T14:36:07.024Z,16.80
2023-04-13T14:40:14.332Z,17.50
2023-04-13T14:44:16.217Z,17.60
2023-04-13T14:48:17.883Z,17.50
2023-04-13T14:52:19.763Z,17.20
2023-04-13T14:56:21.747Z,16.60
2023-04-13T15:00:38.302Z,16.50
2023-04-13T15:04:42.477Z,15.90
2023-04-13T15:08:45.249Z,15.40
2023-04-13T15:12:48.047Z,15.40
2023-04-13T15:16:49.818Z,15.40
2023-04-13T15:20:51.684Z,15.40
2023-04-13T15:24:53.430Z,15.40
2023-04-13T15:28:55.142Z,14.90
2023-04-13T15:32:59.291Z,14.40
2023-04-13T15:37:01.093Z,14.00
2023-04-13T15:41:03.138Z,13.80
2023-04-13T15:45:06.934Z,13.70
2023-04-13T15:49:08.521Z,13.80
2023-04-13T15:53:10.244Z,14.00
2023-04-13T15:57:12.088Z,14.00
2023-04-13T16:01:14.341Z,13.70
2023-04-13T16:05:16.354Z,13.60
2023-04-13T16:09:18.444Z,13.60
2023-04-13T16:13:20.400Z,13.60
2023-04-13T16:17:30.909Z,13.70
2023-04-13T16:21:32.819Z,13.60
2023-04-13T16:25:34.468Z,13.60
2023-04-13T16:29:36.454Z,13.80
2023-04-13T16:33:38.208Z,13.70
2023-04-13T16:37:44.877Z,13.60
2023-04-13T16:41:47.022Z,13.50
2023-04-13T16:45:48.840Z,13.60
2023-04-13T16:49:50.867Z,13.50
2023-04-13T16:53:53.245Z,13.50
2023-04-13T16:57:55.097Z,13.60
2023-04-13T17:01:56.752Z,13.60
2023-04-13T17:05:58.434Z,13.50
2023-04-13T17:10:00.293Z,13.40
2023-04-13T17:14:02.066Z,13.20
2023-04-13T17:18:04.169Z,13.10
2023-04-13T17:22:05.833Z,13.00
2023-04-13T17:26:07.447Z,13.00
2023-04-13T17:30:09.556Z,13.00
2023-04-13T17:34:11.400Z,13.00
2023-04-13T17:38:13.102Z,13.00
2023-04-13T17:42:15.399Z,13.00
2023-04-13T17:46:17.124Z,13.00
2023-04-13T17:50:18.894Z,13.10
2023-04-13T17:54:20.602Z,13.20
2023-04-13T17:58:22.243Z,13.10
2023-04-13T18:02:24.268Z,12.90
2023-04-13T18:06:27.084Z,12.70
2023-04-13T18:10:28.778Z,12.40
2023-04-13T18:14:30.449Z,12.20
2023-04-13T18:18:32.268Z,11.90
2023-04-13T18:22:34.667Z,11.60
2023-04-13T18:26:36.332Z,11.40
2023-04-13T18:30:38.030Z,11.20
2023-04-13T18:34:42.455Z,10.80
2023-04-13T18:38:45.043Z,10.50
2023-04-13T18:42:49.866Z,10.20
2023-04-13T18:46:51.563Z,9.90
2023-04-13T18:50:53.291Z,9.50
2023-04-13T18:54:55.256Z,9.20
2023-04-13T18:58:56.984Z,9.00
2023-04-13T19:02:58.879Z,8.70
2023-04-13T19:07:00.733Z,8.50
2023-04-13T19:11:02.367Z,8.30
2023-04-13T19:15:04.342Z,8.00
2023-04-13T19:19:06.003Z,7.90
2023-04-13T19:23:07.698Z,7.70
2023-04-13T19:27:09.305Z,7.50
2023-04-13T19:31:11.743Z,7.30
2023-04-13T19:35:13.714Z,7.20
2023-04-13T19:39:15.477Z,7.10
2023-04-13T19:43:20.601Z,7.00
2023-04-13T19:47:22.282Z,6.90
2023-04-13T19:51:31.117Z,6.70
2023-04-13T19:55:33.375Z,6.60
2023-04-13T19:59:35.058Z,6.50
2023-04-13T20:03:36.951Z,6.40
2023-04-13T20:07:38.711Z,6.30
2023-04-13T20:11:41.674Z,6.20
2023-04-13T20:15:43.408Z,6.10
2023-04-13T20:19:45.438Z,6.00
2023-04-13T20:23:47.102Z,5.90
2023-04-13T20:27:48.998Z,5.90
2023-04-13T20:31:50.986Z,5.70
2023-04-13T20:35:53.589Z,5.70
2023-04-13T20:39:55.215Z,5.60
2023-04-13T20:43:58.700Z,5.50
2023-04-13T20:52:24.519Z,5.50
2023-04-13T20:56:26.274Z,5.40
2023-04-13T21:00:28.482Z,5.40
2023-04-13T21:04:30.642Z,5.40
2023-04-13T21:08:32.396Z,5.40
2023-04-13T21:12:34.005Z,5.50
2023-04-13T21:16:35.739Z,5.70
2023-04-13T21:20:42.933Z,5.80
2023-04-13T21:24:44.783Z,5.90
2023-04-13T21:28:46.538Z,6.20
2023-04-13T21:32:48.980Z,6.50
2023-04-13T21:36:51.904Z,6.90
2023-04-13T21:40:54.018Z,7.00
2023-04-13T21:44:57.003Z,7.00
2023-04-13T21:48:58.998Z,7.10
2023-04-13T21:53:00.804Z,7.10
2023-04-13T21:57:02.470Z,7.10
2023-04-13T22:01:04.458Z,7.20
2023-04-13T22:05:06.834Z,7.30
2023-04-13T22:09:08.519Z,7.10
2023-04-13T22:13:10.351Z,7.00
2023-04-13T22:17:13.645Z,6.90
2023-04-13T22:21:16.227Z,6.80
2023-04-13T22:25:17.912Z,6.70
2023-04-13T22:29:19.623Z,6.60
2023-04-13T22:33:21.515Z,6.50
2023-04-13T22:37:23.251Z,6.50
2023-04-13T22:41:25.223Z,6.30
2023-04-13T22:45:26.902Z,6.20
2023-04-13T22:49:32.039Z,5.90
2023-04-13T22:53:33.677Z,5.80
2023-04-13T22:57:35.438Z,5.60
2023-04-13T23:01:37.139Z,5.50
2023-04-13T23:05:39.279Z,5.30
2023-04-13T23:09:40.903Z,5.20
2023-04-13T23:13:43.046Z,5.00
2023-04-13T23:17:44.772Z,4.90
2023-04-13T23:21:46.776Z,4.70
2023-04-13T23:25:50.005Z,4.70
2023-04-13T23:29:51.680Z,4.50
2023-04-13T23:33:54.978Z,4.40
2023-04-13T23:37:56.909Z,4.30
2023-04-13T23:41:58.532Z,4.30
2023-04-13T23:46:00.409Z,4.20
2023-04-13T23:50:02.646Z,4.10
2023-04-13T23:54:04.353Z,4.00
2023-04-13T23:58:06.101Z,3.90
